sensor_id;sensor_type;location;lat;lon;timestamp;temperature;humidity
49861;DHT22;35761;48.826;9.238;2022-09-09T00:00:26;17.10;40.10
49861;DHT22;35761;48.826;9.238;2022-09-09T00:03:03;17.10;40.60
49861;DHT22;35761;48.826;9.238;2022-09-09T00:05:39;17.00;41.10
49861;DHT22;35761;48.826;9.238;2022-09-09T00:08:18;16.90;41.60
49861;DHT22;35761;48.826;9.238;2022-09-09T00:10:54;16.90;41.90
49861;DHT22;35761;48.826;9.238;2022-09-09T00:13:30;16.90;42.10
49861;DHT22;35761;48.826;9.238;2022-09-09T00:16:07;16.90;42.10
49861;DHT22;35761;48.826;9.238;2022-09-09T00:18:50;16.70;42.30
49861;DHT22;35761;48.826;9.238;2022-09-09T00:21:32;16.70;42.40
49861;DHT22;35761;48.826;9.238;2022-09-09T00:24:09;16.70;42.70
49861;DHT22;35761;48.826;9.238;2022-09-09T00:26:43;16.70;42.70
49861;DHT22;35761;48.826;9.238;2022-09-09T00:29:20;16.70;42.70
49861;DHT22;35761;48.826;9.238;2022-09-09T00:31:54;16.60;42.70
49861;DHT22;35761;48.826;9.238;2022-09-09T00:34:28;16.60;42.40
49861;DHT22;35761;48.826;9.238;2022-09-09T00:36:58;16.50;42.40
49861;DHT22;35761;48.826;9.238;2022-09-09T00:39:31;16.50;42.40
49861;DHT22;35761;48.826;9.238;2022-09-09T00:42:12;16.50;42.40
49861;DHT22;35761;48.826;9.238;2022-09-09T00:44:53;16.50;42.20
49861;DHT22;35761;48.826;9.238;2022-09-09T00:47:44;16.50;42.30
49861;DHT22;35761;48.826;9.238;2022-09-09T00:50:27;16.50;42.40
49861;DHT22;35761;48.826;9.238;2022-09-09T00:53:10;16.50;42.40
49861;DHT22;35761;48.826;9.238;2022-09-09T00:55:49;16.50;42.30
49861;DHT22;35761;48.826;9.238;2022-09-09T00:58:21;16.50;42.40
49861;DHT22;35761;48.826;9.238;2022-09-09T01:00:52;16.50;42.50
49861;DHT22;35761;48.826;9.238;2022-09-09T01:03:33;16.40;42.60
49861;DHT22;35761;48.826;9.238;2022-09-09T01:06:14;16.50;42.70
49861;DHT22;35761;48.826;9.238;2022-09-09T01:09:10;16.40;42.70
49861;DHT22;35761;48.826;9.238;2022-09-09T01:11:52;16.40;42.70
49861;DHT22;35761;48.826;9.238;2022-09-09T01:14:40;16.40;42.60
49861;DHT22;35761;48.826;9.238;2022-09-09T01:17:15;16.40;42.70
49861;DHT22;35761;48.826;9.238;2022-09-09T01:20:02;16.40;42.60
49861;DHT22;35761;48.826;9.238;2022-09-09T01:22:47;16.40;42.40
49861;DHT22;35761;48.826;9.238;2022-09-09T01:25:28;16.40;42.40
49861;DHT22;35761;48.826;9.238;2022-09-09T01:28:12;16.40;42.60
49861;DHT22;35761;48.826;9.238;2022-09-09T01:30:45;16.50;42.90
49861;DHT22;35761;48.826;9.238;2022-09-09T01:33:17;16.50;42.70
49861;DHT22;35761;48.826;9.238;2022-09-09T01:35:50;16.50;42.60
49861;DHT22;35761;48.826;9.238;2022-09-09T01:38:24;16.50;41.80
49861;DHT22;35761;48.826;9.238;2022-09-09T01:40:53;16.50;41.50
49861;DHT22;35761;48.826;9.238;2022-09-09T01:43:30;16.50;41.20
49861;DHT22;35761;48.826;9.238;2022-09-09T01:46:01;16.40;41.40
49861;DHT22;35761;48.826;9.238;2022-09-09T01:48:31;16.40;41.30
49861;DHT22;35761;48.826;9.238;2022-09-09T01:51:07;16.40;41.40
49861;DHT22;35761;48.826;9.238;2022-09-09T01:53:39;16.40;41.40
49861;DHT22;35761;48.826;9.238;2022-09-09T01:56:51;16.40;41.10
49861;DHT22;35761;48.826;9.238;2022-09-09T02:02:32;16.40;41.10
49861;DHT22;35761;48.826;9.238;2022-09-09T02:05:25;16.40;41.10
49861;DHT22;35761;48.826;9.238;2022-09-09T02:08:05;16.40;41.10
49861;DHT22;35761;48.826;9.238;2022-09-09T02:10:50;16.40;41.10
49861;DHT22;35761;48.826;9.238;2022-09-09T02:13:37;16.40;41.50
49861;DHT22;35761;48.826;9.238;2022-09-09T02:16:15;16.40;41.60
49861;DHT22;35761;48.826;9.238;2022-09-09T02:18:50;16.40;41.90
49861;DHT22;35761;48.826;9.238;2022-09-09T02:21:30;16.40;41.40
49861;DHT22;35761;48.826;9.238;2022-09-09T02:24:04;16.40;41.10
49861;DHT22;35761;48.826;9.238;2022-09-09T02:26:44;16.40;41.10
49861;DHT22;35761;48.826;9.238;2022-09-09T02:29:18;16.40;41.20
49861;DHT22;35761;48.826;9.238;2022-09-09T02:31:50;16.30;41.40
49861;DHT22;35761;48.826;9.238;2022-09-09T02:34:24;16.30;41.70
49861;DHT22;35761;48.826;9.238;2022-09-09T02:36:55;16.30;41.80
49861;DHT22;35761;48.826;9.238;2022-09-09T02:39:26;16.30;41.90
49861;DHT22;35761;48.826;9.238;2022-09-09T02:41:55;16.30;41.80
49861;DHT22;35761;48.826;9.238;2022-09-09T02:44:30;16.30;41.70
49861;DHT22;35761;48.826;9.238;2022-09-09T02:47:26;16.30;41.80
49861;DHT22;35761;48.826;9.238;2022-09-09T02:50:09;16.20;41.70
49861;DHT22;35761;48.826;9.238;2022-09-09T02:52:47;16.20;42.00
49861;DHT22;35761;48.826;9.238;2022-09-09T02:55:26;16.30;42.20
49861;DHT22;35761;48.826;9.238;2022-09-09T02:58:02;16.20;42.10
49861;DHT22;35761;48.826;9.238;2022-09-09T03:00:34;16.20;42.50
49861;DHT22;35761;48.826;9.238;2022-09-09T03:03:05;16.10;42.50
49861;DHT22;35761;48.826;9.238;2022-09-09T03:05:34;16.20;42.70
49861;DHT22;35761;48.826;9.238;2022-09-09T03:08:02;16.20;42.80
49861;DHT22;35761;48.826;9.238;2022-09-09T03:10:32;16.10;43.00
49861;DHT22;35761;48.826;9.238;2022-09-09T03:13:02;16.20;43.00
49861;DHT22;35761;48.826;9.238;2022-09-09T03:15:35;16.20;43.10
49861;DHT22;35761;48.826;9.238;2022-09-09T03:18:08;16.20;43.10
49861;DHT22;35761;48.826;9.238;2022-09-09T03:20:36;16.20;43.00
49861;DHT22;35761;48.826;9.238;2022-09-09T03:23:04;16.10;43.00
49861;DHT22;35761;48.826;9.238;2022-09-09T03:25:39;16.10;43.00
49861;DHT22;35761;48.826;9.238;2022-09-09T03:28:07;16.10;42.80
49861;DHT22;35761;48.826;9.238;2022-09-09T03:30:35;16.00;42.60
49861;DHT22;35761;48.826;9.238;2022-09-09T03:33:04;16.00;42.50
49861;DHT22;35761;48.826;9.238;2022-09-09T03:35:34;16.00;42.50
49861;DHT22;35761;48.826;9.238;2022-09-09T03:38:03;16.00;42.90
49861;DHT22;35761;48.826;9.238;2022-09-09T03:40:33;15.90;43.00
49861;DHT22;35761;48.826;9.238;2022-09-09T03:43:02;15.90;43.30
49861;DHT22;35761;48.826;9.238;2022-09-09T03:45:30;15.90;43.60
49861;DHT22;35761;48.826;9.238;2022-09-09T03:47:59;15.80;43.70
49861;DHT22;35761;48.826;9.238;2022-09-09T03:50:28;15.80;43.90
49861;DHT22;35761;48.826;9.238;2022-09-09T03:52:58;15.70;44.00
49861;DHT22;35761;48.826;9.238;2022-09-09T03:55:26;15.70;44.10
49861;DHT22;35761;48.826;9.238;2022-09-09T03:57:55;15.70;44.30
49861;DHT22;35761;48.826;9.238;2022-09-09T04:00:23;15.70;44.70
49861;DHT22;35761;48.826;9.238;2022-09-09T04:02:53;15.70;45.00
49861;DHT22;35761;48.826;9.238;2022-09-09T04:05:22;15.70;44.90
49861;DHT22;35761;48.826;9.238;2022-09-09T04:07:51;15.70;45.00
49861;DHT22;35761;48.826;9.238;2022-09-09T04:10:22;15.70;45.20
49861;DHT22;35761;48.826;9.238;2022-09-09T04:12:52;15.70;45.20
49861;DHT22;35761;48.826;9.238;2022-09-09T04:15:21;15.60;45.20
49861;DHT22;35761;48.826;9.238;2022-09-09T04:17:49;15.60;45.20
49861;DHT22;35761;48.826;9.238;2022-09-09T04:20:18;15.60;45.50
49861;DHT22;35761;48.826;9.238;2022-09-09T04:22:46;15.70;45.60
49861;DHT22;35761;48.826;9.238;2022-09-09T04:25:15;15.70;45.60
49861;DHT22;35761;48.826;9.238;2022-09-09T04:27:45;15.70;45.50
49861;DHT22;35761;48.826;9.238;2022-09-09T04:30:14;15.60;45.50
49861;DHT22;35761;48.826;9.238;2022-09-09T04:32:43;15.60;45.50
49861;DHT22;35761;48.826;9.238;2022-09-09T04:35:11;15.60;45.60
49861;DHT22;35761;48.826;9.238;2022-09-09T04:37:40;15.60;45.50
49861;DHT22;35761;48.826;9.238;2022-09-09T04:40:09;15.70;45.70
49861;DHT22;35761;48.826;9.238;2022-09-09T04:42:38;15.60;45.70
49861;DHT22;35761;48.826;9.238;2022-09-09T04:45:14;15.60;45.70
49861;DHT22;35761;48.826;9.238;2022-09-09T04:47:43;15.50;45.90
49861;DHT22;35761;48.826;9.238;2022-09-09T04:50:11;15.50;46.20
49861;DHT22;35761;48.826;9.238;2022-09-09T04:52:40;15.50;46.20
49861;DHT22;35761;48.826;9.238;2022-09-09T04:55:09;15.50;46.30
49861;DHT22;35761;48.826;9.238;2022-09-09T04:57:37;15.40;46.40
49861;DHT22;35761;48.826;9.238;2022-09-09T05:00:07;15.40;46.40
49861;DHT22;35761;48.826;9.238;2022-09-09T05:02:40;15.40;46.50
49861;DHT22;35761;48.826;9.238;2022-09-09T05:05:09;15.40;46.70
49861;DHT22;35761;48.826;9.238;2022-09-09T05:07:39;15.30;46.80
49861;DHT22;35761;48.826;9.238;2022-09-09T05:10:09;15.30;47.00
49861;DHT22;35761;48.826;9.238;2022-09-09T05:12:37;15.30;47.00
49861;DHT22;35761;48.826;9.238;2022-09-09T05:15:06;15.30;47.00
49861;DHT22;35761;48.826;9.238;2022-09-09T05:17:36;15.30;47.10
49861;DHT22;35761;48.826;9.238;2022-09-09T05:20:08;15.30;47.20
49861;DHT22;35761;48.826;9.238;2022-09-09T05:22:43;15.30;47.20
49861;DHT22;35761;48.826;9.238;2022-09-09T05:25:11;15.30;47.20
49861;DHT22;35761;48.826;9.238;2022-09-09T05:27:40;15.30;47.50
49861;DHT22;35761;48.826;9.238;2022-09-09T05:30:09;15.30;47.40
49861;DHT22;35761;48.826;9.238;2022-09-09T05:32:38;15.30;47.60
49861;DHT22;35761;48.826;9.238;2022-09-09T05:35:08;15.20;48.30
49861;DHT22;35761;48.826;9.238;2022-09-09T05:37:38;15.30;47.70
49861;DHT22;35761;48.826;9.238;2022-09-09T05:40:07;15.30;47.50
49861;DHT22;35761;48.826;9.238;2022-09-09T05:42:38;15.30;47.70
49861;DHT22;35761;48.826;9.238;2022-09-09T05:45:07;15.30;48.00
49861;DHT22;35761;48.826;9.238;2022-09-09T05:47:38;15.30;48.20
49861;DHT22;35761;48.826;9.238;2022-09-09T05:50:10;15.40;47.80
49861;DHT22;35761;48.826;9.238;2022-09-09T05:52:40;15.30;47.80
49861;DHT22;35761;48.826;9.238;2022-09-09T05:55:08;15.30;48.00
49861;DHT22;35761;48.826;9.238;2022-09-09T05:57:37;15.40;47.60
49861;DHT22;35761;48.826;9.238;2022-09-09T06:00:08;15.50;47.40
49861;DHT22;35761;48.826;9.238;2022-09-09T06:02:40;15.50;46.90
49861;DHT22;35761;48.826;9.238;2022-09-09T06:05:13;15.50;47.30
49861;DHT22;35761;48.826;9.238;2022-09-09T06:07:42;15.50;47.50
49861;DHT22;35761;48.826;9.238;2022-09-09T06:10:12;15.50;47.40
49861;DHT22;35761;48.826;9.238;2022-09-09T06:12:41;15.50;47.50
49861;DHT22;35761;48.826;9.238;2022-09-09T06:15:09;15.50;47.80
49861;DHT22;35761;48.826;9.238;2022-09-09T06:17:38;15.50;47.70
49861;DHT22;35761;48.826;9.238;2022-09-09T06:20:09;15.50;48.00
49861;DHT22;35761;48.826;9.238;2022-09-09T06:22:40;15.50;48.20
49861;DHT22;35761;48.826;9.238;2022-09-09T06:25:09;15.50;48.30
49861;DHT22;35761;48.826;9.238;2022-09-09T06:27:38;15.60;48.40
49861;DHT22;35761;48.826;9.238;2022-09-09T06:30:08;15.60;48.30
49861;DHT22;35761;48.826;9.238;2022-09-09T06:32:38;15.70;47.50
49861;DHT22;35761;48.826;9.238;2022-09-09T06:35:07;15.70;47.70
49861;DHT22;35761;48.826;9.238;2022-09-09T06:37:36;15.70;47.60
49861;DHT22;35761;48.826;9.238;2022-09-09T06:40:07;15.70;47.60
49861;DHT22;35761;48.826;9.238;2022-09-09T06:42:36;15.80;47.30
49861;DHT22;35761;48.826;9.238;2022-09-09T06:45:22;15.80;47.80
49861;DHT22;35761;48.826;9.238;2022-09-09T06:47:55;15.80;48.10
49861;DHT22;35761;48.826;9.238;2022-09-09T06:50:24;15.80;47.60
49861;DHT22;35761;48.826;9.238;2022-09-09T06:52:52;15.90;47.60
49861;DHT22;35761;48.826;9.238;2022-09-09T06:55:22;15.90;47.80
49861;DHT22;35761;48.826;9.238;2022-09-09T06:57:51;15.90;48.10
49861;DHT22;35761;48.826;9.238;2022-09-09T07:00:22;15.90;47.80
49861;DHT22;35761;48.826;9.238;2022-09-09T07:02:51;15.90;48.10
49861;DHT22;35761;48.826;9.238;2022-09-09T07:05:20;16.00;47.80
49861;DHT22;35761;48.826;9.238;2022-09-09T07:07:48;16.00;48.10
49861;DHT22;35761;48.826;9.238;2022-09-09T07:10:18;16.00;48.30
49861;DHT22;35761;48.826;9.238;2022-09-09T07:12:51;16.00;48.40
49861;DHT22;35761;48.826;9.238;2022-09-09T07:15:22;16.10;48.50
49861;DHT22;35761;48.826;9.238;2022-09-09T07:17:51;16.10;48.40
49861;DHT22;35761;48.826;9.238;2022-09-09T07:20:20;16.10;48.50
49861;DHT22;35761;48.826;9.238;2022-09-09T07:22:50;16.10;48.40
49861;DHT22;35761;48.826;9.238;2022-09-09T07:25:18;16.20;48.00
49861;DHT22;35761;48.826;9.238;2022-09-09T07:27:48;16.30;47.60
49861;DHT22;35761;48.826;9.238;2022-09-09T07:30:18;16.30;47.20
49861;DHT22;35761;48.826;9.238;2022-09-09T07:32:53;16.40;47.60
49861;DHT22;35761;48.826;9.238;2022-09-09T07:35:24;16.30;47.70
49861;DHT22;35761;48.826;9.238;2022-09-09T07:37:53;16.30;48.10
49861;DHT22;35761;48.826;9.238;2022-09-09T07:40:22;16.40;47.90
49861;DHT22;35761;48.826;9.238;2022-09-09T07:42:52;16.40;48.50
49861;DHT22;35761;48.826;9.238;2022-09-09T07:45:22;16.40;47.60
49861;DHT22;35761;48.826;9.238;2022-09-09T07:47:51;16.50;47.10
49861;DHT22;35761;48.826;9.238;2022-09-09T07:50:20;16.60;47.20
49861;DHT22;35761;48.826;9.238;2022-09-09T07:52:49;16.60;47.50
49861;DHT22;35761;48.826;9.238;2022-09-09T07:55:18;16.70;47.10
49861;DHT22;35761;48.826;9.238;2022-09-09T07:57:46;16.80;46.60
49861;DHT22;35761;48.826;9.238;2022-09-09T08:00:16;16.80;46.00
49861;DHT22;35761;48.826;9.238;2022-09-09T08:02:52;16.80;46.90
49861;DHT22;35761;48.826;9.238;2022-09-09T08:05:21;16.80;46.60
49861;DHT22;35761;48.826;9.238;2022-09-09T08:07:50;16.90;45.80
49861;DHT22;35761;48.826;9.238;2022-09-09T08:10:19;16.90;45.60
49861;DHT22;35761;48.826;9.238;2022-09-09T08:12:48;17.00;45.40
49861;DHT22;35761;48.826;9.238;2022-09-09T08:15:37;17.10;45.80
49861;DHT22;35761;48.826;9.238;2022-09-09T08:18:07;17.20;44.60
49861;DHT22;35761;48.826;9.238;2022-09-09T08:20:36;17.30;45.20
49861;DHT22;35761;48.826;9.238;2022-09-09T08:23:05;17.30;44.70
49861;DHT22;35761;48.826;9.238;2022-09-09T08:25:34;17.40;44.80
49861;DHT22;35761;48.826;9.238;2022-09-09T08:28:03;17.50;44.70
49861;DHT22;35761;48.826;9.238;2022-09-09T08:30:31;17.60;44.90
49861;DHT22;35761;48.826;9.238;2022-09-09T08:33:00;17.60;45.20
49861;DHT22;35761;48.826;9.238;2022-09-09T08:35:29;17.60;44.70
49861;DHT22;35761;48.826;9.238;2022-09-09T08:37:59;17.70;41.80
49861;DHT22;35761;48.826;9.238;2022-09-09T08:40:39;17.80;42.30
49861;DHT22;35761;48.826;9.238;2022-09-09T08:43:14;17.80;43.00
49861;DHT22;35761;48.826;9.238;2022-09-09T08:45:50;17.90;43.70
49861;DHT22;35761;48.826;9.238;2022-09-09T08:48:38;18.00;42.80
49861;DHT22;35761;48.826;9.238;2022-09-09T08:51:13;17.90;43.00
49861;DHT22;35761;48.826;9.238;2022-09-09T08:53:46;18.10;42.30
49861;DHT22;35761;48.826;9.238;2022-09-09T08:56:18;18.30;42.00
49861;DHT22;35761;48.826;9.238;2022-09-09T08:58:54;18.30;41.00
49861;DHT22;35761;48.826;9.238;2022-09-09T09:01:44;18.50;38.90
49861;DHT22;35761;48.826;9.238;2022-09-09T09:07:26;18.80;38.40
49861;DHT22;35761;48.826;9.238;2022-09-09T09:10:12;18.90;37.40
49861;DHT22;35761;48.826;9.238;2022-09-09T09:13:13;19.00;37.50
49861;DHT22;35761;48.826;9.238;2022-09-09T09:15:48;19.10;36.20
49861;DHT22;35761;48.826;9.238;2022-09-09T09:18:18;19.10;35.40
49861;DHT22;35761;48.826;9.238;2022-09-09T09:20:54;19.20;35.00
49861;DHT22;35761;48.826;9.238;2022-09-09T09:23:35;19.20;34.70
49861;DHT22;35761;48.826;9.238;2022-09-09T09:26:09;19.20;33.80
49861;DHT22;35761;48.826;9.238;2022-09-09T09:28:40;19.20;32.80
49861;DHT22;35761;48.826;9.238;2022-09-09T09:31:13;19.20;33.60
49861;DHT22;35761;48.826;9.238;2022-09-09T09:33:48;19.20;32.20
49861;DHT22;35761;48.826;9.238;2022-09-09T09:36:25;19.20;32.80
49861;DHT22;35761;48.826;9.238;2022-09-09T09:39:05;19.20;32.60
49861;DHT22;35761;48.826;9.238;2022-09-09T09:41:57;19.10;32.80
49861;DHT22;35761;48.826;9.238;2022-09-09T09:44:32;19.00;33.00
49861;DHT22;35761;48.826;9.238;2022-09-09T09:47:12;19.00;32.30
49861;DHT22;35761;48.826;9.238;2022-09-09T09:49:52;18.90;33.50
49861;DHT22;35761;48.826;9.238;2022-09-09T09:52:23;18.80;34.10
49861;DHT22;35761;48.826;9.238;2022-09-09T09:54:55;18.80;33.20
49861;DHT22;35761;48.826;9.238;2022-09-09T09:57:32;18.70;33.00
49861;DHT22;35761;48.826;9.238;2022-09-09T10:00:13;18.80;32.90
49861;DHT22;35761;48.826;9.238;2022-09-09T10:02:49;18.80;33.10
49861;DHT22;35761;48.826;9.238;2022-09-09T10:05:25;18.80;32.50
49861;DHT22;35761;48.826;9.238;2022-09-09T10:08:11;18.80;32.80
49861;DHT22;35761;48.826;9.238;2022-09-09T10:13:51;19.10;30.80
49861;DHT22;35761;48.826;9.238;2022-09-09T10:16:33;19.20;30.40
49861;DHT22;35761;48.826;9.238;2022-09-09T10:19:12;19.30;31.00
49861;DHT22;35761;48.826;9.238;2022-09-09T10:22:04;19.40;31.40
49861;DHT22;35761;48.826;9.238;2022-09-09T10:25:13;19.50;30.30
49861;DHT22;35761;48.826;9.238;2022-09-09T10:28:18;19.60;30.50
49861;DHT22;35761;48.826;9.238;2022-09-09T10:31:00;19.60;31.60
49861;DHT22;35761;48.826;9.238;2022-09-09T10:33:44;19.70;32.00
49861;DHT22;35761;48.826;9.238;2022-09-09T10:36:19;19.70;32.80
49861;DHT22;35761;48.826;9.238;2022-09-09T10:38:53;19.80;33.10
49861;DHT22;35761;48.826;9.238;2022-09-09T10:41:40;19.90;33.10
49861;DHT22;35761;48.826;9.238;2022-09-09T10:44:21;20.00;33.30
49861;DHT22;35761;48.826;9.238;2022-09-09T10:50:09;20.10;33.80
49861;DHT22;35761;48.826;9.238;2022-09-09T10:52:54;20.30;34.00
49861;DHT22;35761;48.826;9.238;2022-09-09T10:55:35;20.40;34.10
49861;DHT22;35761;48.826;9.238;2022-09-09T10:58:09;20.40;31.90
49861;DHT22;35761;48.826;9.238;2022-09-09T11:00:43;20.40;32.20
49861;DHT22;35761;48.826;9.238;2022-09-09T11:03:18;20.40;32.40
49861;DHT22;35761;48.826;9.238;2022-09-09T11:05:55;20.40;32.20
49861;DHT22;35761;48.826;9.238;2022-09-09T11:08:27;20.40;32.60
49861;DHT22;35761;48.826;9.238;2022-09-09T11:11:01;20.50;33.40
49861;DHT22;35761;48.826;9.238;2022-09-09T11:13:35;20.60;32.70
49861;DHT22;35761;48.826;9.238;2022-09-09T11:16:19;20.60;32.50
49861;DHT22;35761;48.826;9.238;2022-09-09T11:18:54;20.60;31.40
49861;DHT22;35761;48.826;9.238;2022-09-09T11:21:28;20.60;31.70
49861;DHT22;35761;48.826;9.238;2022-09-09T11:24:02;20.40;29.40
49861;DHT22;35761;48.826;9.238;2022-09-09T11:26:37;20.40;29.60
49861;DHT22;35761;48.826;9.238;2022-09-09T11:29:21;20.30;29.60
49861;DHT22;35761;48.826;9.238;2022-09-09T11:32:14;20.10;29.30
49861;DHT22;35761;48.826;9.238;2022-09-09T11:34:56;20.00;29.50
49861;DHT22;35761;48.826;9.238;2022-09-09T11:37:50;20.00;31.00
49861;DHT22;35761;48.826;9.238;2022-09-09T11:40:32;19.90;31.40
49861;DHT22;35761;48.826;9.238;2022-09-09T11:43:04;19.80;31.30
49861;DHT22;35761;48.826;9.238;2022-09-09T11:45:35;19.70;30.80
49861;DHT22;35761;48.826;9.238;2022-09-09T11:48:05;19.70;30.80
49861;DHT22;35761;48.826;9.238;2022-09-09T11:51:00;19.60;31.10
49861;DHT22;35761;48.826;9.238;2022-09-09T11:53:48;19.50;30.40
49861;DHT22;35761;48.826;9.238;2022-09-09T11:56:26;19.40;30.40
49861;DHT22;35761;48.826;9.238;2022-09-09T11:59:00;19.30;31.00
49861;DHT22;35761;48.826;9.238;2022-09-09T12:01:38;19.30;31.40
49861;DHT22;35761;48.826;9.238;2022-09-09T12:04:21;19.40;31.20
49861;DHT22;35761;48.826;9.238;2022-09-09T12:06:58;19.40;31.40
49861;DHT22;35761;48.826;9.238;2022-09-09T12:09:33;19.40;30.90
49861;DHT22;35761;48.826;9.238;2022-09-09T12:12:23;19.40;29.70
49861;DHT22;35761;48.826;9.238;2022-09-09T12:15:02;19.50;29.30
49861;DHT22;35761;48.826;9.238;2022-09-09T12:17:48;19.60;29.50
49861;DHT22;35761;48.826;9.238;2022-09-09T12:20:21;19.70;27.90
49861;DHT22;35761;48.826;9.238;2022-09-09T12:23:02;19.50;28.30
49861;DHT22;35761;48.826;9.238;2022-09-09T12:26:00;19.60;28.80
49861;DHT22;35761;48.826;9.238;2022-09-09T12:28:49;19.70;29.00
49861;DHT22;35761;48.826;9.238;2022-09-09T12:31:25;19.80;28.20
49861;DHT22;35761;48.826;9.238;2022-09-09T12:34:06;19.90;27.90
49861;DHT22;35761;48.826;9.238;2022-09-09T12:36:40;20.10;27.60
49861;DHT22;35761;48.826;9.238;2022-09-09T12:39:19;20.30;26.60
49861;DHT22;35761;48.826;9.238;2022-09-09T12:41:51;20.60;26.50
49861;DHT22;35761;48.826;9.238;2022-09-09T12:44:25;20.70;26.60
49861;DHT22;35761;48.826;9.238;2022-09-09T12:46:56;20.90;25.90
49861;DHT22;35761;48.826;9.238;2022-09-09T12:49:30;21.00;24.00
49861;DHT22;35761;48.826;9.238;2022-09-09T12:52:04;20.90;24.00
49861;DHT22;35761;48.826;9.238;2022-09-09T12:54:35;20.90;23.70
49861;DHT22;35761;48.826;9.238;2022-09-09T12:57:05;20.80;23.80
49861;DHT22;35761;48.826;9.238;2022-09-09T12:59:39;20.80;23.90
49861;DHT22;35761;48.826;9.238;2022-09-09T13:02:19;20.80;23.90
49861;DHT22;35761;48.826;9.238;2022-09-09T13:04:49;20.80;24.30
49861;DHT22;35761;48.826;9.238;2022-09-09T13:07:20;21.00;25.20
49861;DHT22;35761;48.826;9.238;2022-09-09T13:09:49;21.30;24.60
49861;DHT22;35761;48.826;9.238;2022-09-09T13:12:19;21.60;23.80
49861;DHT22;35761;48.826;9.238;2022-09-09T13:14:51;21.70;23.50
49861;DHT22;35761;48.826;9.238;2022-09-09T13:17:24;21.70;23.40
49861;DHT22;35761;48.826;9.238;2022-09-09T13:19:55;21.70;23.20
49861;DHT22;35761;48.826;9.238;2022-09-09T13:22:30;21.90;23.00
49861;DHT22;35761;48.826;9.238;2022-09-09T13:25:02;21.90;23.20
49861;DHT22;35761;48.826;9.238;2022-09-09T13:27:34;21.80;23.20
49861;DHT22;35761;48.826;9.238;2022-09-09T13:30:20;21.70;24.00
49861;DHT22;35761;48.826;9.238;2022-09-09T13:33:06;21.70;24.20
49861;DHT22;35761;48.826;9.238;2022-09-09T13:35:50;21.60;24.10
49861;DHT22;35761;48.826;9.238;2022-09-09T13:38:27;21.60;24.20
49861;DHT22;35761;48.826;9.238;2022-09-09T13:40:57;21.60;24.50
49861;DHT22;35761;48.826;9.238;2022-09-09T13:43:34;21.90;24.10
49861;DHT22;35761;48.826;9.238;2022-09-09T13:46:21;22.20;24.20
49861;DHT22;35761;48.826;9.238;2022-09-09T13:48:54;22.60;23.70
49861;DHT22;35761;48.826;9.238;2022-09-09T13:51:32;22.90;22.60
49861;DHT22;35761;48.826;9.238;2022-09-09T13:54:06;23.00;22.40
49861;DHT22;35761;48.826;9.238;2022-09-09T13:56:38;23.00;22.50
49861;DHT22;35761;48.826;9.238;2022-09-09T13:59:11;22.80;23.00
49861;DHT22;35761;48.826;9.238;2022-09-09T14:01:40;22.80;22.30
49861;DHT22;35761;48.826;9.238;2022-09-09T14:04:09;22.70;21.90
49861;DHT22;35761;48.826;9.238;2022-09-09T14:06:39;22.60;21.60
49861;DHT22;35761;48.826;9.238;2022-09-09T14:09:11;22.50;22.00
49861;DHT22;35761;48.826;9.238;2022-09-09T14:11:43;22.80;21.50
49861;DHT22;35761;48.826;9.238;2022-09-09T14:14:12;23.10;21.30
49861;DHT22;35761;48.826;9.238;2022-09-09T14:16:43;23.30;20.60
49861;DHT22;35761;48.826;9.238;2022-09-09T14:19:12;23.20;20.60
49861;DHT22;35761;48.826;9.238;2022-09-09T14:21:40;23.20;20.50
49861;DHT22;35761;48.826;9.238;2022-09-09T14:24:10;23.30;19.80
49861;DHT22;35761;48.826;9.238;2022-09-09T14:26:39;23.50;19.80
49861;DHT22;35761;48.826;9.238;2022-09-09T14:29:07;23.80;19.20
49861;DHT22;35761;48.826;9.238;2022-09-09T14:31:36;24.10;19.30
49861;DHT22;35761;48.826;9.238;2022-09-09T14:34:04;24.00;18.00
49861;DHT22;35761;48.826;9.238;2022-09-09T14:36:33;23.70;18.50
49861;DHT22;35761;48.826;9.238;2022-09-09T14:39:01;23.70;17.70
49861;DHT22;35761;48.826;9.238;2022-09-09T14:41:31;23.80;18.20
49861;DHT22;35761;48.826;9.238;2022-09-09T14:43:59;23.90;17.20
49861;DHT22;35761;48.826;9.238;2022-09-09T14:46:27;24.20;18.00
49861;DHT22;35761;48.826;9.238;2022-09-09T14:48:56;24.40;17.40
49861;DHT22;35761;48.826;9.238;2022-09-09T14:51:25;24.50;17.30
49861;DHT22;35761;48.826;9.238;2022-09-09T14:53:57;24.30;16.70
49861;DHT22;35761;48.826;9.238;2022-09-09T14:56:28;24.10;17.10
49861;DHT22;35761;48.826;9.238;2022-09-09T14:58:59;24.10;17.40
49861;DHT22;35761;48.826;9.238;2022-09-09T15:01:29;24.10;17.70
49861;DHT22;35761;48.826;9.238;2022-09-09T15:04:00;24.00;17.70
49861;DHT22;35761;48.826;9.238;2022-09-09T15:06:31;24.00;17.70
49861;DHT22;35761;48.826;9.238;2022-09-09T15:09:01;24.20;17.60
49861;DHT22;35761;48.826;9.238;2022-09-09T15:11:33;24.40;17.20
49861;DHT22;35761;48.826;9.238;2022-09-09T15:14:06;24.50;17.30
49861;DHT22;35761;48.826;9.238;2022-09-09T15:16:36;24.40;16.70
49861;DHT22;35761;48.826;9.238;2022-09-09T15:19:05;24.10;16.90
49861;DHT22;35761;48.826;9.238;2022-09-09T15:21:34;24.00;17.70
49861;DHT22;35761;48.826;9.238;2022-09-09T15:24:04;23.70;17.50
49861;DHT22;35761;48.826;9.238;2022-09-09T15:26:35;23.60;17.60
49861;DHT22;35761;48.826;9.238;2022-09-09T15:29:06;23.60;17.80
49861;DHT22;35761;48.826;9.238;2022-09-09T15:31:36;23.70;18.00
49861;DHT22;35761;48.826;9.238;2022-09-09T15:34:06;23.60;18.10
49861;DHT22;35761;48.826;9.238;2022-09-09T15:36:36;23.70;18.00
49861;DHT22;35761;48.826;9.238;2022-09-09T15:39:06;23.70;18.30
49861;DHT22;35761;48.826;9.238;2022-09-09T15:41:36;23.70;18.30
49861;DHT22;35761;48.826;9.238;2022-09-09T15:44:06;23.90;17.50
49861;DHT22;35761;48.826;9.238;2022-09-09T15:46:36;24.00;17.50
49861;DHT22;35761;48.826;9.238;2022-09-09T15:49:07;24.10;17.50
49861;DHT22;35761;48.826;9.238;2022-09-09T15:51:38;24.10;17.70
49861;DHT22;35761;48.826;9.238;2022-09-09T15:54:11;24.20;17.40
49861;DHT22;35761;48.826;9.238;2022-09-09T15:56:41;24.10;17.40
49861;DHT22;35761;48.826;9.238;2022-09-09T15:59:11;24.00;17.80
49861;DHT22;35761;48.826;9.238;2022-09-09T16:01:40;24.00;17.90
49861;DHT22;35761;48.826;9.238;2022-09-09T16:04:10;23.80;18.00
49861;DHT22;35761;48.826;9.238;2022-09-09T16:06:39;23.70;18.20
49861;DHT22;35761;48.826;9.238;2022-09-09T16:09:07;23.70;18.40
49861;DHT22;35761;48.826;9.238;2022-09-09T16:11:38;23.50;18.60
49861;DHT22;35761;48.826;9.238;2022-09-09T16:14:06;23.60;18.60
49861;DHT22;35761;48.826;9.238;2022-09-09T16:16:37;23.60;18.80
49861;DHT22;35761;48.826;9.238;2022-09-09T16:19:07;23.50;19.00
49861;DHT22;35761;48.826;9.238;2022-09-09T16:21:38;23.50;19.30
49861;DHT22;35761;48.826;9.238;2022-09-09T16:24:10;23.40;19.80